Time;durP1;ratioP1;P1;durP2;ratioP2;P2;SDS_P1;SDS_P2;PMS_P1;PMS_P2;Temp;Humidity;BMP_temperature;BMP_pressure;BME280_temperature;BME280_humidity;BME280_pressure;Samples;Min_cycle;Max_cycle;Signal;HPM_P1;HPM_P2
2022/05/17 00:02:24;;;;;;;0.00;0.00;;;15.40;99.90;;;;;;4851925;29;20051;-66
2022/05/17 00:04:50;;;;;;;0.00;0.00;;;15.60;99.90;;;;;;4868439;29;20072;-66
2022/05/17 00:07:16;;;;;;;0.00;0.00;;;15.50;99.90;;;;;;4867210;29;20066;-66
2022/05/17 00:09:42;;;;;;;0.00;0.00;;;15.30;99.90;;;;;;4866755;29;20103;-67
2022/05/17 00:12:08;;;;;;;0.63;0.32;;;15.30;99.90;;;;;;4867696;29;20081;-66
2022/05/17 00:14:34;;;;;;;0.00;0.00;;;15.20;99.90;;;;;;4851307;29;20120;-66
2022/05/17 00:17:00;;;;;;;0.00;0.00;;;15.20;99.90;;;;;;4867616;29;20089;-66
2022/05/17 00:19:27;;;;;;;0.00;0.00;;;15.20;99.90;;;;;;4851208;29;20132;-65
2022/05/17 00:21:52;;;;;;;0.00;0.00;;;15.10;99.90;;;;;;4867259;29;20092;-66
2022/05/17 00:24:21;;;;;;;0.03;0.03;;;15.10;99.90;;;;;;4867541;29;20049;-66
2022/05/17 00:26:46;;;;;;;0.00;0.00;;;15.00;99.90;;;;;;4867698;29;20061;-67
2022/05/17 00:29:12;;;;;;;0.30;0.22;;;15.10;99.90;;;;;;4868364;29;20041;-66
2022/05/17 00:31:37;;;;;;;0.10;0.10;;;14.90;99.90;;;;;;4850958;29;20132;-66
2022/05/17 00:34:04;;;;;;;0.20;0.17;;;15.00;99.90;;;;;;4850371;29;20124;-66
2022/05/17 00:36:31;;;;;;;0.00;0.00;;;14.80;99.90;;;;;;4867007;29;20528;-66
2022/05/17 00:38:57;;;;;;;0.10;0.00;;;15.10;99.90;;;;;;4850767;29;20056;-66
2022/05/17 00:41:22;;;;;;;0.00;0.00;;;14.80;99.90;;;;;;4867743;29;20044;-66
2022/05/17 00:46:38;;;;;;;0.00;0.00;;;14.90;99.90;;;;;;4877904;29;20056;-66
2022/05/17 00:49:08;;;;;;;0.00;0.00;;;14.70;99.90;;;;;;4867062;29;20049;-66
2022/05/17 00:51:33;;;;;;;9.57;0.10;;;14.70;99.90;;;;;;4866796;29;20481;-66
2022/05/17 00:54:06;;;;;;;0.00;0.00;;;15.00;99.90;;;;;;4867790;29;20087;-66
2022/05/17 00:56:33;;;;;;;0.13;0.13;;;14.70;99.90;;;;;;4866806;29;20049;-66
2022/05/17 00:59:01;;;;;;;0.00;0.00;;;14.70;99.90;;;;;;4867995;29;20124;-66
2022/05/17 01:01:31;;;;;;;0.15;0.15;;;14.60;99.90;;;;;;4889206;23;20067;-66
2022/05/17 01:04:10;;;;;;;0.00;0.00;;;14.90;99.90;;;;;;4918680;29;20073;-66
2022/05/17 01:06:42;;;;;;;0.00;0.00;;;14.60;99.90;;;;;;4922608;29;20046;-66
2022/05/17 01:09:08;;;;;;;0.00;0.00;;;14.60;99.90;;;;;;4904719;29;20056;-66
2022/05/17 01:11:34;;;;;;;0.15;0.00;;;14.50;99.90;;;;;;4904721;29;20054;-65
2022/05/17 01:16:44;;;;;;;0.00;0.00;;;14.40;99.90;;;;;;4904659;29;20052;-66
2022/05/17 01:19:12;;;;;;;0.00;0.00;;;14.30;99.90;;;;;;4887891;29;20055;-65
2022/05/17 01:21:39;;;;;;;0.00;0.00;;;14.50;99.90;;;;;;4906905;29;20052;-66
2022/05/17 01:24:05;;;;;;;0.00;0.00;;;14.30;99.90;;;;;;4908167;29;20044;-65
2022/05/17 01:26:35;;;;;;;0.00;0.00;;;14.40;99.90;;;;;;4908691;29;20052;-66
2022/05/17 01:29:01;;;;;;;0.00;0.00;;;14.40;99.90;;;;;;4908943;29;20044;-66
2022/05/17 01:31:28;;;;;;;0.00;0.00;;;14.40;99.90;;;;;;4907892;29;20068;-66
2022/05/17 01:33:53;;;;;;;0.00;0.00;;;14.30;99.90;;;;;;4892011;29;20095;-66
2022/05/17 01:36:22;;;;;;;0.00;0.00;;;14.30;99.90;;;;;;4875439;29;20730;-66
2022/05/17 01:38:51;;;;;;;0.00;0.00;;;14.50;99.90;;;;;;4908512;29;20115;-66
2022/05/17 01:41:18;;;;;;;0.00;0.00;;;14.30;99.90;;;;;;4908245;29;20087;-66
2022/05/17 01:43:44;;;;;;;0.00;0.00;;;14.50;99.90;;;;;;4908503;29;20044;-66
2022/05/17 01:46:10;;;;;;;0.00;0.00;;;14.30;99.90;;;;;;4916958;29;20075;-66
2022/05/17 01:48:37;;;;;;;0.00;0.00;;;14.20;99.90;;;;;;4909882;29;20412;-66
2022/05/17 01:51:06;;;;;;;0.00;0.00;;;14.20;99.90;;;;;;4906524;29;20487;-66
2022/05/17 01:53:32;;;;;;;0.10;0.10;;;14.20;99.90;;;;;;4908240;29;20447;-66
2022/05/17 01:55:58;;;;;;;0.00;0.00;;;14.20;99.90;;;;;;4907751;29;20044;-65
2022/05/17 01:58:23;;;;;;;0.20;0.03;;;14.20;99.90;;;;;;4908098;29;20495;-66
2022/05/17 02:00:49;;;;;;;0.00;0.00;;;14.20;99.90;;;;;;4891291;29;20879;-66
2022/05/17 02:03:14;;;;;;;0.30;0.10;;;14.20;99.90;;;;;;4908448;29;20123;-65
2022/05/17 02:05:40;;;;;;;0.00;0.00;;;14.10;99.90;;;;;;4890042;29;20059;-66
2022/05/17 02:08:06;;;;;;;0.10;0.10;;;13.90;99.90;;;;;;4908171;29;20067;-65
2022/05/17 02:10:32;;;;;;;0.00;0.00;;;14.00;99.90;;;;;;4907553;29;20044;-66
2022/05/17 02:12:58;;;;;;;0.00;0.00;;;14.00;99.90;;;;;;4890438;29;20036;-66
2022/05/17 02:15:25;;;;;;;0.05;0.05;;;14.00;99.90;;;;;;4908078;29;20173;-66
2022/05/17 02:17:52;;;;;;;0.00;0.00;;;14.10;99.90;;;;;;4908192;29;20083;-66
2022/05/17 02:20:18;;;;;;;0.00;0.00;;;14.00;99.90;;;;;;4907227;29;20110;-66
2022/05/17 02:22:44;;;;;;;1.23;1.13;;;14.00;99.90;;;;;;4890553;29;20147;-66
2022/05/17 02:25:11;;;;;;;0.00;0.00;;;14.00;99.90;;;;;;4907729;29;20107;-66
2022/05/17 02:27:37;;;;;;;0.00;0.00;;;13.90;99.90;;;;;;4907336;29;20051;-66
2022/05/17 02:30:06;;;;;;;0.00;0.00;;;14.00;99.90;;;;;;4890434;29;20052;-66
2022/05/17 02:32:32;;;;;;;0.00;0.00;;;13.80;99.90;;;;;;4906569;29;20403;-66
2022/05/17 02:34:58;;;;;;;0.00;0.00;;;13.90;99.90;;;;;;4907005;29;20050;-66
2022/05/17 02:37:23;;;;;;;0.00;0.00;;;13.70;99.90;;;;;;4906875;29;20055;-65
2022/05/17 02:39:49;;;;;;;0.20;0.10;;;13.80;99.90;;;;;;4907518;29;20040;-67
2022/05/17 02:42:15;;;;;;;0.00;0.00;;;13.70;99.90;;;;;;4890995;29;20040;-66
2022/05/17 02:44:40;;;;;;;0.00;0.00;;;13.70;99.90;;;;;;4908929;29;20052;-65
2022/05/17 02:47:11;;;;;;;0.00;0.00;;;13.70;99.90;;;;;;4916798;29;20567;-66
2022/05/17 02:49:40;;;;;;;0.00;0.00;;;13.70;99.90;;;;;;4907423;29;20048;-66
2022/05/17 02:52:07;;;;;;;0.00;0.00;;;13.60;99.90;;;;;;4890160;29;20138;-66
2022/05/17 02:54:33;;;;;;;0.20;0.20;;;13.70;99.90;;;;;;4889829;29;20059;-65
2022/05/17 02:56:59;;;;;;;0.00;0.00;;;13.60;99.90;;;;;;4907170;29;20092;-66
2022/05/17 02:59:25;;;;;;;0.00;0.00;;;13.70;99.90;;;;;;4907090;29;20079;-65
2022/05/17 03:01:50;;;;;;;0.00;0.00;;;13.60;99.90;;;;;;4906510;29;20601;-65
2022/05/17 03:04:16;;;;;;;0.25;0.20;;;13.70;99.90;;;;;;4907105;29;20127;-67
2022/05/17 03:06:43;;;;;;;0.00;0.00;;;13.60;99.90;;;;;;4906846;29;20063;-66
2022/05/17 03:09:09;;;;;;;0.00;0.00;;;13.70;99.90;;;;;;4906952;29;20632;-66
2022/05/17 03:11:36;;;;;;;0.00;0.00;;;13.60;99.90;;;;;;4905907;29;20047;-65
2022/05/17 03:14:02;;;;;;;0.00;0.00;;;13.50;99.90;;;;;;4889764;29;20146;-66
2022/05/17 03:16:32;;;;;;;0.00;0.00;;;13.50;99.90;;;;;;4906894;29;20044;-66
2022/05/17 03:18:59;;;;;;;0.00;0.00;;;13.50;99.90;;;;;;4906351;29;20075;-66
2022/05/17 03:21:26;;;;;;;0.00;0.00;;;13.50;99.90;;;;;;4905819;29;20464;-66
2022/05/17 03:23:51;;;;;;;0.00;0.00;;;13.40;99.90;;;;;;4890099;29;20095;-66
2022/05/17 03:26:17;;;;;;;0.00;0.00;;;13.60;99.90;;;;;;4889626;29;20487;-67
2022/05/17 03:28:43;;;;;;;0.00;0.00;;;13.70;99.90;;;;;;4906533;29;20036;-66
2022/05/17 03:31:10;;;;;;;0.32;0.15;;;13.40;99.90;;;;;;4906557;29;20051;-65
2022/05/17 03:33:37;;;;;;;0.00;0.00;;;13.40;99.90;;;;;;4906343;29;20052;-66
2022/05/17 03:36:04;;;;;;;0.00;0.00;;;13.40;99.90;;;;;;4903610;29;20051;-66
2022/05/17 03:38:29;;;;;;;0.00;0.00;;;13.30;99.90;;;;;;4889521;29;20087;-66
2022/05/17 03:40:58;;;;;;;0.00;0.00;;;13.40;99.90;;;;;;4906364;29;20075;-66
2022/05/17 03:43:24;;;;;;;0.00;0.00;;;13.40;99.90;;;;;;4889092;29;20059;-66
2022/05/17 03:45:50;;;;;;;0.00;0.00;;;13.40;99.90;;;;;;4912313;29;20050;-66
2022/05/17 03:48:16;;;;;;;0.00;0.00;;;13.70;99.90;;;;;;4911083;29;20432;-67
2022/05/17 03:50:42;;;;;;;0.00;0.00;;;13.30;99.90;;;;;;4905814;29;20061;-66
2022/05/17 03:53:08;;;;;;;0.00;0.00;;;13.20;99.90;;;;;;4888956;29;20056;-66
2022/05/17 03:55:34;;;;;;;0.20;0.20;;;13.30;99.90;;;;;;4906212;29;20044;-66
2022/05/17 03:58:00;;;;;;;0.20;0.20;;;13.40;99.90;;;;;;4906183;29;20475;-65
2022/05/17 04:00:25;;;;;;;0.00;0.00;;;13.30;99.90;;;;;;4905438;29;20050;-66
2022/05/17 04:02:51;;;;;;;0.10;0.10;;;13.20;99.90;;;;;;4888874;29;20075;-65
2022/05/17 04:05:17;;;;;;;0.00;0.00;;;13.30;99.90;;;;;;4904920;29;20122;-66
2022/05/17 04:07:43;;;;;;;0.65;0.10;;;13.40;99.90;;;;;;4906343;29;20040;-65
2022/05/17 04:10:11;;;;;;;0.00;0.00;;;13.30;99.90;;;;;;4888304;29;20067;-65
2022/05/17 04:12:37;;;;;;;0.00;0.00;;;13.60;99.90;;;;;;4905570;29;20059;-66
2022/05/17 04:15:04;;;;;;;0.00;0.00;;;13.50;99.90;;;;;;4905888;29;20041;-65
2022/05/17 04:17:30;;;;;;;0.00;0.00;;;13.40;99.90;;;;;;4905147;29;20047;-66
2022/05/17 04:19:58;;;;;;;0.00;0.00;;;13.30;99.90;;;;;;4904909;29;20127;-66
2022/05/17 04:22:24;;;;;;;0.00;0.00;;;13.50;99.90;;;;;;4888287;29;20050;-66
2022/05/17 04:24:53;;;;;;;0.00;0.00;;;13.40;99.90;;;;;;4905305;29;20502;-66
2022/05/17 04:27:19;;;;;;;0.00;0.00;;;13.50;99.90;;;;;;4905610;29;20048;-66
2022/05/17 04:29:44;;;;;;;0.00;0.00;;;13.60;99.90;;;;;;4889123;29;20102;-66
2022/05/17 04:32:10;;;;;;;0.00;0.00;;;13.50;99.90;;;;;;4888666;29;20387;-66
2022/05/17 04:34:36;;;;;;;0.00;0.00;;;13.50;99.90;;;;;;4904173;29;20157;-66
2022/05/17 04:37:02;;;;;;;0.75;0.75;;;13.80;99.90;;;;;;4905558;29;20745;-66
2022/05/17 04:39:28;;;;;;;0.10;0.10;;;13.60;99.90;;;;;;4905268;29;20044;-66
2022/05/17 04:41:53;;;;;;;0.00;0.00;;;13.60;99.90;;;;;;4904773;29;20048;-66
2022/05/17 04:44:19;;;;;;;0.00;0.00;;;13.70;99.90;;;;;;4872573;29;20048;-66
2022/05/17 04:46:44;;;;;;;0.00;0.00;;;13.90;99.90;;;;;;4913035;29;20635;-66
2022/05/17 04:49:10;;;;;;;0.00;0.00;;;14.30;99.90;;;;;;4924059;29;20051;-66
2022/05/17 04:51:36;;;;;;;0.00;0.00;;;14.50;99.90;;;;;;4922889;29;20055;-66
2022/05/17 04:54:03;;;;;;;0.10;0.10;;;14.80;99.90;;;;;;4924333;29;20072;-66
2022/05/17 04:56:28;;;;;;;0.00;0.00;;;15.00;99.90;;;;;;4923695;29;20043;-66
2022/05/17 04:58:54;;;;;;;0.00;0.00;;;15.10;99.90;;;;;;4923435;29;20487;-66
2022/05/17 05:01:21;;;;;;;0.00;0.00;;;15.20;99.90;;;;;;4923638;29;20724;-66
2022/05/17 05:03:47;;;;;;;0.00;0.00;;;15.30;99.90;;;;;;4890897;29;20047;-66
2022/05/17 05:06:12;;;;;;;0.00;0.00;;;15.50;99.90;;;;;;4923854;29;20236;-66
2022/05/17 05:08:38;;;;;;;0.00;0.00;;;15.50;99.90;;;;;;4923618;29;20123;-66
2022/05/17 05:11:04;;;;;;;0.00;0.00;;;15.50;99.90;;;;;;4923576;29;20494;-66
2022/05/17 05:13:29;;;;;;;0.13;0.10;;;15.60;99.90;;;;;;4923473;29;20051;-66
2022/05/17 05:15:55;;;;;;;0.00;0.00;;;15.80;99.90;;;;;;4923579;29;20036;-66
2022/05/17 05:18:22;;;;;;;0.00;0.00;;;16.30;99.90;;;;;;4906763;29;20063;-66
2022/05/17 05:20:47;;;;;;;0.00;0.00;;;16.10;99.90;;;;;;4906437;29;20059;-66
2022/05/17 05:23:13;;;;;;;0.00;0.00;;;16.20;99.90;;;;;;4907259;29;20039;-65
2022/05/17 05:25:40;;;;;;;0.00;0.00;;;16.10;99.90;;;;;;4906136;29;20043;-66
2022/05/17 05:28:07;;;;;;;0.00;0.00;;;16.20;99.90;;;;;;4906737;29;20083;-65
2022/05/17 05:30:33;;;;;;;0.47;0.38;;;16.50;99.90;;;;;;4906604;29;20048;-66
2022/05/17 05:32:59;;;;;;;0.75;0.70;;;16.60;99.90;;;;;;4923426;29;20091;-66
2022/05/17 05:35:25;;;;;;;0.13;0.13;;;16.80;99.90;;;;;;4922904;29;20106;-66
2022/05/17 05:37:52;;;;;;;0.10;0.10;;;16.80;99.90;;;;;;4923767;29;20062;-66
2022/05/17 05:40:19;;;;;;;0.10;0.10;;;17.00;99.90;;;;;;4923175;29;20075;-66
2022/05/17 05:42:44;;;;;;;0.00;0.00;;;16.90;99.90;;;;;;4923357;29;20455;-66
2022/05/17 05:45:11;;;;;;;0.00;0.00;;;17.00;99.90;;;;;;4919293;29;20048;-66
2022/05/17 05:47:37;;;;;;;0.00;0.00;;;17.00;99.90;;;;;;4912974;29;20048;-65
2022/05/17 05:50:03;;;;;;;0.00;0.00;;;16.80;99.90;;;;;;4903559;29;20046;-66
2022/05/17 05:52:29;;;;;;;0.10;0.10;;;16.90;99.90;;;;;;4887638;29;20055;-66
2022/05/17 05:54:55;;;;;;;0.00;0.00;;;16.70;99.90;;;;;;4904521;29;20047;-66
2022/05/17 05:57:21;;;;;;;0.38;0.32;;;16.40;99.90;;;;;;4904473;29;21131;-65
2022/05/17 05:59:46;;;;;;;0.05;0.05;;;16.30;99.90;;;;;;4904394;29;20048;-66
2022/05/17 06:02:12;;;;;;;0.00;0.00;;;16.20;99.90;;;;;;4904759;29;20484;-65
2022/05/17 06:04:39;;;;;;;0.00;0.00;;;16.10;99.90;;;;;;4903471;29;20052;-65
2022/05/17 06:07:05;;;;;;;0.00;0.00;;;16.10;99.90;;;;;;4904505;29;20040;-65
2022/05/17 06:09:31;;;;;;;0.00;0.00;;;16.10;99.90;;;;;;4907936;29;20047;-65
2022/05/17 06:11:57;;;;;;;0.25;0.00;;;16.40;99.90;;;;;;4907727;29;20408;-65
2022/05/17 06:14:22;;;;;;;0.00;0.00;;;16.80;99.90;;;;;;4906542;29;20048;-66
2022/05/17 06:16:52;;;;;;;0.00;0.00;;;16.80;99.90;;;;;;4907363;29;20040;-66
2022/05/17 06:19:18;;;;;;;0.00;0.00;;;17.00;99.90;;;;;;4907103;29;20047;-66
2022/05/17 06:21:44;;;;;;;0.00;0.00;;;17.20;99.90;;;;;;4907944;29;20522;-66
2022/05/17 06:24:10;;;;;;;0.00;0.00;;;17.40;99.90;;;;;;4907236;29;20068;-65
2022/05/17 06:26:36;;;;;;;0.00;0.00;;;17.40;99.90;;;;;;4907607;29;20567;-66
2022/05/17 06:29:03;;;;;;;0.00;0.00;;;17.40;99.90;;;;;;4907532;29;20408;-65
2022/05/17 06:31:28;;;;;;;0.00;0.00;;;17.60;99.90;;;;;;4906805;29;20052;-65
2022/05/17 06:33:54;;;;;;;0.00;0.00;;;17.70;99.90;;;;;;4907563;29;20043;-65
2022/05/17 06:36:20;;;;;;;0.10;0.10;;;17.60;99.90;;;;;;4906503;29;20139;-65
2022/05/17 06:38:46;;;;;;;0.00;0.00;;;17.70;99.90;;;;;;4907770;29;20052;-66
2022/05/17 06:41:11;;;;;;;0.00;0.00;;;17.70;99.90;;;;;;4907891;29;20098;-64
2022/05/17 06:43:37;;;;;;;0.00;0.00;;;17.80;99.90;;;;;;4907236;29;20063;-65
2022/05/17 06:46:04;;;;;;;0.00;0.00;;;18.00;99.90;;;;;;4914947;29;20043;-66
2022/05/17 06:48:30;;;;;;;0.00;0.00;;;18.20;99.90;;;;;;4942119;28;20406;-65
2022/05/17 06:51:07;;;;;;;0.10;0.10;;;18.20;99.90;;;;;;4944571;29;20051;-64
2022/05/17 06:53:34;;;;;;;0.00;0.00;;;18.10;99.90;;;;;;4928304;29;20058;-68
2022/05/17 06:55:59;;;;;;;0.10;0.10;;;18.40;99.90;;;;;;4944945;29;20746;-65
2022/05/17 06:58:28;;;;;;;0.00;0.00;;;18.60;99.90;;;;;;4945393;29;20053;-65
2022/05/17 07:00:55;;;;;;;0.00;0.00;;;18.90;99.90;;;;;;4944982;29;20106;-65
2022/05/17 07:03:20;;;;;;;0.45;0.08;;;19.20;99.90;;;;;;4945133;29;20503;-65
2022/05/17 07:05:46;;;;;;;0.00;0.00;;;19.30;99.90;;;;;;4944236;29;20043;-65
2022/05/17 07:08:12;;;;;;;0.30;0.30;;;19.30;99.90;;;;;;4944963;29;20166;-64
2022/05/17 07:13:22;;;;;;;0.00;0.00;;;19.10;99.90;;;;;;4945009;29;20043;-64
2022/05/17 07:15:49;;;;;;;0.00;0.00;;;19.20;99.90;;;;;;4945113;29;20050;-65
2022/05/17 07:18:21;;;;;;;0.00;0.00;;;19.20;99.90;;;;;;4945174;28;20097;-65
2022/05/17 07:20:47;;;;;;;0.00;0.00;;;19.30;99.90;;;;;;4944125;29;20419;-66
2022/05/17 07:23:14;;;;;;;0.00;0.00;;;19.40;99.90;;;;;;4928233;28;20055;-65
2022/05/17 07:25:41;;;;;;;0.00;0.00;;;19.60;99.90;;;;;;4944923;29;20203;-68
2022/05/17 07:28:08;;;;;;;0.00;0.00;;;19.50;99.90;;;;;;4927179;29;20047;-65
2022/05/17 07:30:34;;;;;;;0.00;0.00;;;19.90;99.90;;;;;;4944569;29;20054;-65
2022/05/17 07:33:00;;;;;;;0.00;0.00;;;19.60;99.90;;;;;;4927869;29;20055;-65
2022/05/17 07:35:25;;;;;;;0.00;0.00;;;19.80;99.90;;;;;;4943235;29;20043;-65
2022/05/17 07:37:51;;;;;;;0.10;0.10;;;19.90;99.90;;;;;;4944837;29;20047;-65
2022/05/17 07:40:19;;;;;;;0.00;0.00;;;19.70;99.90;;;;;;4944677;29;20051;-64
2022/05/17 07:42:45;;;;;;;0.00;0.00;;;20.00;99.90;;;;;;4927989;29;20049;-65
2022/05/17 07:45:13;;;;;;;0.55;0.32;;;19.90;99.90;;;;;;4932968;29;20048;-65
2022/05/17 07:47:39;;;;;;;0.00;0.00;;;19.80;99.90;;;;;;4897730;29;20039;-64
2022/05/17 07:50:06;;;;;;;0.00;0.00;;;19.90;99.90;;;;;;4905441;29;20052;-65
2022/05/17 07:52:32;;;;;;;0.05;0.05;;;20.00;99.90;;;;;;4905528;29;20056;-65
2022/05/17 07:55:01;;;;;;;0.00;0.00;;;19.80;99.90;;;;;;4889436;29;20048;-64
2022/05/17 07:57:27;;;;;;;0.00;0.00;;;19.80;99.90;;;;;;4906103;29;20139;-66
2022/05/17 07:59:53;;;;;;;0.00;0.00;;;20.00;99.90;;;;;;4888464;29;20249;-64
2022/05/17 08:02:19;;;;;;;0.00;0.00;;;19.90;99.90;;;;;;4905745;29;20619;-64
2022/05/17 08:04:45;;;;;;;0.00;0.00;;;20.20;99.90;;;;;;4905903;29;20052;-65
2022/05/17 08:07:11;;;;;;;0.00;0.00;;;20.60;99.90;;;;;;4889493;29;20048;-64
2022/05/17 08:09:37;;;;;;;0.00;0.00;;;20.40;99.90;;;;;;4905271;29;20055;-64
2022/05/17 08:12:07;;;;;;;0.00;0.00;;;20.30;99.90;;;;;;4905724;29;20052;-64
2022/05/17 08:14:37;;;;;;;0.00;0.00;;;20.20;99.90;;;;;;4905876;29;20132;-64
2022/05/17 08:17:04;;;;;;;0.00;0.00;;;20.40;99.90;;;;;;4872851;29;20048;-65
2022/05/17 08:19:30;;;;;;;0.00;0.00;;;20.90;99.90;;;;;;4905132;29;20458;-64
2022/05/17 08:21:56;;;;;;;0.00;0.00;;;20.90;99.90;;;;;;4905808;29;20079;-64
2022/05/17 08:24:21;;;;;;;0.00;0.00;;;20.60;99.90;;;;;;4887953;29;20048;-65
2022/05/17 08:29:31;;;;;;;0.25;0.00;;;20.30;99.90;;;;;;4905006;29;20165;-64
2022/05/17 08:34:41;;;;;;;0.00;0.00;;;20.40;99.90;;;;;;4905553;29;20483;-64
2022/05/17 08:37:07;;;;;;;0.00;0.00;;;20.90;99.90;;;;;;4900280;29;20043;-64
2022/05/17 08:39:33;;;;;;;0.00;0.00;;;20.90;99.90;;;;;;4925645;29;20051;-65
2022/05/17 08:42:19;;;;;;;0.00;0.00;;;21.20;99.90;;;;;;4925899;29;20059;-65
2022/05/17 08:44:50;;;;;;;0.00;0.00;;;21.40;99.90;;;;;;4937969;29;20043;-64
2022/05/17 08:47:30;;;;;;;0.00;0.00;;;21.40;99.90;;;;;;4913855;29;20036;-65
2022/05/17 08:50:02;;;;;;;0.00;0.00;;;21.60;99.90;;;;;;4902776;29;20513;-65
2022/05/17 08:52:30;;;;;;;0.00;0.00;;;21.80;99.90;;;;;;4905107;29;20075;-64
2022/05/17 08:55:14;;;;;;;0.00;0.00;;;21.70;99.90;;;;;;4905280;29;20037;-64
2022/05/17 08:57:42;;;;;;;0.00;0.00;;;21.80;99.90;;;;;;4905257;29;20056;-64
2022/05/17 09:00:14;;;;;;;1.25;0.57;;;21.60;99.90;;;;;;4905545;29;20048;-65
2022/05/17 09:02:52;;;;;;;0.00;0.00;;;21.80;99.90;;;;;;4904420;29;20464;-64
2022/05/17 09:06:00;;;;;;;0.00;0.00;;;22.10;99.90;;;;;;4904292;29;20074;-65
2022/05/17 09:08:48;;;;;;;0.00;0.00;;;22.30;99.90;;;;;;4827736;29;20128;-65
2022/05/17 09:11:21;;;;;;;0.00;0.00;;;22.20;99.90;;;;;;4904149;29;20063;-64
2022/05/17 09:13:53;;;;;;;0.00;0.00;;;22.00;99.90;;;;;;4904720;29;20059;-65
2022/05/17 09:16:21;;;;;;;0.00;0.00;;;22.50;99.90;;;;;;4905281;29;20100;-65
2022/05/17 09:18:48;;;;;;;0.00;0.00;;;23.00;99.90;;;;;;4904041;29;20052;-65
2022/05/17 09:21:28;;;;;;;0.00;0.00;;;23.00;99.90;;;;;;4917535;29;20053;-65
2022/05/17 09:23:56;;;;;;;0.00;0.00;;;23.10;99.90;;;;;;4921656;29;20054;-65
2022/05/17 09:26:23;;;;;;;0.00;0.00;;;23.20;99.90;;;;;;4925122;28;20047;-65
2022/05/17 09:28:53;;;;;;;0.00;0.00;;;23.40;99.90;;;;;;4943113;29;20094;-65
2022/05/17 09:31:21;;;;;;;0.00;0.00;;;23.40;99.90;;;;;;4925514;29;20086;-65
2022/05/17 09:33:48;;;;;;;0.65;0.25;;;23.50;99.90;;;;;;4942391;29;20870;-65
2022/05/17 09:36:20;;;;;;;0.10;0.10;;;23.40;99.90;;;;;;4943374;29;20054;-65
2022/05/17 09:38:48;;;;;;;0.00;0.00;;;23.30;99.90;;;;;;4926090;29;20133;-66
2022/05/17 09:41:19;;;;;;;0.00;0.00;;;23.50;99.90;;;;;;4943941;28;20055;-65
2022/05/17 09:44:08;;;;;;;0.00;0.00;;;23.60;99.90;;;;;;4947096;29;20039;-65
2022/05/17 09:46:41;;;;;;;0.00;0.00;;;23.40;99.90;;;;;;4921087;29;20187;-65
2022/05/17 09:55:08;;;;;;;0.00;0.00;;;23.30;99.90;;;;;;4907633;29;20140;-65
2022/05/17 09:57:34;;;;;;;0.00;0.00;;;23.00;99.90;;;;;;4891421;29;20424;-65
2022/05/17 10:00:12;;;;;;;0.00;0.00;;;23.30;99.90;;;;;;4908135;29;20048;-65
2022/05/17 10:02:41;;;;;;;0.00;0.00;;;23.70;99.90;;;;;;4907698;29;20159;-65
2022/05/17 10:05:17;;;;;;;0.00;0.00;;;23.10;99.90;;;;;;4907306;29;20499;-65
2022/05/17 10:07:50;;;;;;;0.00;0.00;;;23.30;99.90;;;;;;4907850;29;20440;-66
2022/05/17 10:10:35;;;;;;;0.10;0.10;;;23.70;99.90;;;;;;4890871;29;20095;-65
2022/05/17 10:13:35;;;;;;;0.00;0.00;;;23.90;99.90;;;;;;4890441;29;20060;-65
2022/05/17 10:16:08;;;;;;;0.00;0.00;;;24.40;99.90;;;;;;4876562;29;20067;-65
2022/05/17 10:18:42;;;;;;;0.00;0.00;;;24.20;99.90;;;;;;4907173;29;20166;-65
2022/05/17 10:21:21;;;;;;;0.00;0.00;;;23.80;99.90;;;;;;4908169;29;20063;-65
2022/05/17 10:24:05;;;;;;;0.00;0.00;;;23.90;99.90;;;;;;4890613;29;20629;-66
2022/05/17 10:26:37;;;;;;;0.00;0.00;;;24.80;99.90;;;;;;4907416;29;20048;-65
2022/05/17 10:29:23;;;;;;;0.00;0.00;;;24.80;99.90;;;;;;4907496;29;20399;-65
2022/05/17 10:32:27;;;;;;;0.00;0.00;;;24.60;99.90;;;;;;4907546;29;20144;-65
2022/05/17 10:34:59;;;;;;;0.00;0.00;;;24.00;99.90;;;;;;4838417;29;20109;-66
2022/05/17 10:37:38;;;;;;;0.00;0.00;;;23.80;99.90;;;;;;4906943;29;20067;-65
2022/05/17 10:40:11;;;;;;;0.00;0.00;;;23.30;99.90;;;;;;4891567;29;20127;-64
2022/05/17 10:42:38;;;;;;;0.00;0.00;;;23.80;99.90;;;;;;4907344;29;20047;-65
2022/05/17 10:45:05;;;;;;;0.00;0.00;;;24.20;99.90;;;;;;4909508;29;20082;-65
2022/05/17 10:47:46;;;;;;;0.00;0.00;;;24.10;99.90;;;;;;4915238;29;20135;-65
2022/05/17 10:50:25;;;;;;;0.00;0.00;;;24.40;99.90;;;;;;4906792;29;20040;-62
2022/05/17 10:53:04;;;;;;;0.22;0.13;;;24.60;99.90;;;;;;4906590;29;20052;-65
2022/05/17 10:56:03;;;;;;;0.00;0.00;;;24.60;99.90;;;;;;4906297;29;20040;-65
2022/05/17 10:58:49;;;;;;;0.00;0.00;;;25.20;99.90;;;;;;4890167;29;20040;-65
2022/05/17 11:01:36;;;;;;;0.00;0.00;;;25.90;99.90;;;;;;4868313;29;20059;-64
2022/05/17 11:04:11;;;;;;;0.00;0.00;;;26.40;99.90;;;;;;4888844;29;20052;-65
2022/05/17 11:06:47;;;;;;;0.00;0.00;;;26.80;99.90;;;;;;4889978;29;20052;-66
2022/05/17 11:09:46;;;;;;;0.10;0.10;;;26.70;99.90;;;;;;4907341;29;20040;-65
2022/05/17 11:12:14;;;;;;;0.00;0.00;;;25.80;99.90;;;;;;4907237;29;20048;-65
2022/05/17 11:14:54;;;;;;;0.00;0.00;;;25.50;99.90;;;;;;4906323;29;20044;-65
2022/05/17 11:17:36;;;;;;;0.00;0.00;;;25.60;99.90;;;;;;4906566;29;20385;-65
2022/05/17 11:20:04;;;;;;;0.00;0.00;;;25.30;99.90;;;;;;4905358;29;20054;-65
2022/05/17 11:22:46;;;;;;;0.10;0.10;;;25.10;99.90;;;;;;4889331;29;20048;-64
2022/05/17 11:25:33;;;;;;;0.00;0.00;;;24.90;99.90;;;;;;4907111;29;20127;-65
2022/05/17 11:28:25;;;;;;;0.10;0.10;;;25.10;99.90;;;;;;4906628;29;20056;-65
2022/05/17 11:31:04;;;;;;;0.00;0.00;;;25.00;99.90;;;;;;4906531;29;20128;-66
2022/05/17 11:33:34;;;;;;;0.00;0.00;;;25.00;99.90;;;;;;4904521;29;20052;-65
2022/05/17 11:36:03;;;;;;;0.00;0.00;;;25.10;99.90;;;;;;4914627;28;20118;-65
2022/05/17 11:38:35;;;;;;;0.00;0.00;;;25.70;99.90;;;;;;4924247;29;20534;-65
2022/05/17 11:41:18;;;;;;;0.00;0.00;;;26.00;99.90;;;;;;4924432;29;20039;-66
2022/05/17 11:43:50;;;;;;;0.00;0.00;;;26.10;99.90;;;;;;4925428;29;20052;-64
2022/05/17 11:46:28;;;;;;;0.00;0.00;;;26.70;99.90;;;;;;4905228;29;20048;-65
2022/05/17 11:48:59;;;;;;;0.00;0.00;;;26.20;99.90;;;;;;4887805;29;20967;-65
2022/05/17 11:51:31;;;;;;;0.00;0.00;;;26.00;99.90;;;;;;4905676;29;20048;-64
2022/05/17 11:53:57;;;;;;;0.00;0.00;;;25.50;99.90;;;;;;4916445;29;20045;-64
2022/05/17 11:56:26;;;;;;;0.00;0.00;;;25.50;99.90;;;;;;4924080;29;20039;-65
2022/05/17 11:59:00;;;;;;;0.00;0.00;;;25.50;99.90;;;;;;4924340;29;20071;-64
2022/05/17 12:01:29;;;;;;;0.17;0.17;;;26.00;99.90;;;;;;4924090;29;20091;-64
2022/05/17 12:03:57;;;;;;;0.00;0.00;;;25.90;99.90;;;;;;4923305;29;20048;-65
2022/05/17 12:06:41;;;;;;;0.00;0.00;;;26.50;99.90;;;;;;4923892;29;20035;-65
2022/05/17 12:09:29;;;;;;;0.00;0.00;;;26.60;99.90;;;;;;4924087;29;20388;-66
2022/05/17 12:12:17;;;;;;;0.00;0.00;;;26.00;99.90;;;;;;4922622;29;20110;-65
2022/05/17 12:14:58;;;;;;;0.00;0.00;;;26.60;99.90;;;;;;4922203;29;20195;-65
2022/05/17 12:17:28;;;;;;;0.00;0.00;;;27.00;99.90;;;;;;4923631;29;20495;-65
2022/05/17 12:20:06;;;;;;;0.00;0.00;;;27.40;99.90;;;;;;4906015;29;20090;-65
2022/05/17 12:22:41;;;;;;;0.00;0.00;;;27.60;99.90;;;;;;4924038;29;20039;-66
2022/05/17 12:25:20;;;;;;;0.00;0.00;;;27.70;99.90;;;;;;4923670;29;20043;-67
2022/05/17 12:27:47;;;;;;;0.00;0.00;;;28.00;99.90;;;;;;4923772;29;20047;-67
2022/05/17 12:33:27;;;;;;;0.00;0.00;;;27.30;99.90;;;;;;4923617;29;20059;-65
2022/05/17 12:35:55;;;;;;;0.00;0.00;;;26.80;99.90;;;;;;4923956;29;20419;-66
2022/05/17 12:44:21;;;;;;;0.00;0.00;;;25.70;99.90;;;;;;4924162;29;20078;-66
2022/05/17 12:46:51;;;;;;;0.10;0.10;;;26.00;99.90;;;;;;4912197;29;20126;-66
2022/05/17 12:49:28;;;;;;;0.00;0.00;;;26.20;99.90;;;;;;4897023;29;20087;-66
2022/05/17 12:51:58;;;;;;;0.00;0.00;;;26.40;99.90;;;;;;4922868;29;20082;-66
2022/05/17 12:54:29;;;;;;;0.00;0.00;;;26.70;99.90;;;;;;4921361;29;20047;-66
2022/05/17 12:56:55;;;;;;;0.00;0.00;;;27.00;99.90;;;;;;4923851;29;20093;-65
2022/05/17 12:59:30;;;;;;;0.00;0.00;;;27.00;99.90;;;;;;4922914;29;20077;-65
2022/05/17 13:01:59;;;;;;;0.00;0.00;;;27.20;99.90;;;;;;4933427;29;20056;-65
2022/05/17 13:04:33;;;;;;;0.00;0.00;;;27.50;99.90;;;;;;4909703;29;20036;-65
2022/05/17 13:07:16;;;;;;;0.05;0.05;;;27.80;99.90;;;;;;4909534;29;20114;-65
2022/05/17 13:10:05;;;;;;;0.00;0.00;;;28.10;99.90;;;;;;4910385;29;20047;-66
2022/05/17 13:12:35;;;;;;;0.03;0.03;;;28.40;99.90;;;;;;4910845;29;20185;-67
2022/05/17 13:15:09;;;;;;;0.00;0.00;;;28.10;99.90;;;;;;4894154;29;20087;-66
2022/05/17 13:17:38;;;;;;;;;;;27.50;99.90;;;;;;4899636;29;20455;-66
2022/05/17 13:20:20;;;;;;;0.00;0.00;;;27.20;99.90;;;;;;4918311;29;22110;-66
2022/05/17 13:22:51;;;;;;;0.05;0.05;;;27.40;99.90;;;;;;4903354;29;20051;-67
2022/05/17 13:25:20;;;;;;;0.00;0.00;;;27.20;99.90;;;;;;4918831;29;20634;-66
2022/05/17 13:27:52;;;;;;;0.00;0.00;;;27.30;99.90;;;;;;4908000;29;20051;-66
2022/05/17 13:30:42;;;;;;;0.00;0.00;;;27.60;99.90;;;;;;4916271;29;20098;-66